Time;durP1;ratioP1;P1;durP2;ratioP2;P2;SDS_P1;SDS_P2;PMS_P1;PMS_P2;Temp;Humidity;BMP_temperature;BMP_pressure;BME280_temperature;BME280_humidity;BME280_pressure;Samples;Min_cycle;Max_cycle;Signal;HPM_P1;HPM_P2
2022/06/22 00:02:30;;;;;;;7.20;3.00;;;22.00;99.30;;;;;;5064985;28;20036;-77
2022/06/22 00:05:04;;;;;;;6.93;2.78;;;22.00;99.30;;;;;;5064696;28;20033;-77
2022/06/22 00:07:37;;;;;;;6.57;2.78;;;22.00;99.30;;;;;;5066928;28;20049;-77
2022/06/22 00:10:20;;;;;;;8.30;3.78;;;22.00;99.30;;;;;;5065152;28;20045;-77
2022/06/22 00:12:53;;;;;;;5.40;2.85;;;21.90;99.30;;;;;;5065283;28;20040;-77
2022/06/22 00:15:34;;;;;;;4.28;2.75;;;21.90;99.40;;;;;;5074852;28;20052;-77
2022/06/22 00:18:02;;;;;;;4.90;3.20;;;21.90;99.40;;;;;;5076011;28;20045;-78
2022/06/22 00:20:31;;;;;;;6.20;3.42;;;21.90;99.40;;;;;;5062730;28;20045;-78
2022/06/22 00:23:08;;;;;;;6.97;3.53;;;21.90;99.40;;;;;;5064516;28;20040;-78
2022/06/22 00:25:39;;;;;;;4.95;3.67;;;21.90;99.40;;;;;;5063870;28;20106;-78
2022/06/22 00:28:33;;;;;;;9.25;3.15;;;21.80;99.50;;;;;;5064048;28;20043;-78
2022/06/22 00:31:20;;;;;;;6.25;3.53;;;21.80;99.50;;;;;;5063428;28;20107;-78
2022/06/22 00:34:12;;;;;;;6.18;3.47;;;21.70;99.50;;;;;;5073169;28;20512;-77
2022/06/22 00:37:18;;;;;;;7.15;2.53;;;21.60;99.50;;;;;;5064884;28;20140;-77
2022/06/22 00:39:44;;;;;;;5.63;3.13;;;21.70;99.60;;;;;;5030698;28;20045;-76
2022/06/22 00:42:15;;;;;;;4.63;4.07;;;21.60;99.60;;;;;;5039409;28;20548;-77
2022/06/22 00:44:43;;;;;;;5.55;2.92;;;21.50;99.60;;;;;;5051302;28;20048;-77
2022/06/22 00:47:34;;;;;;;6.80;2.63;;;21.50;99.70;;;;;;5061824;28;20167;-77
2022/06/22 00:50:25;;;;;;;5.63;3.25;;;21.50;99.70;;;;;;5058871;28;20627;-76
2022/06/22 00:52:59;;;;;;;3.58;2.58;;;21.40;99.70;;;;;;5045870;28;20045;-76
2022/06/22 00:55:47;;;;;;;4.82;3.10;;;21.40;99.70;;;;;;5061497;28;20055;-76
2022/06/22 00:58:24;;;;;;;4.32;2.90;;;21.30;99.80;;;;;;5061794;28;20577;-76
2022/06/22 01:01:04;;;;;;;3.83;2.70;;;21.30;99.80;;;;;;5060671;28;20080;-76
2022/06/22 01:03:51;;;;;;;6.65;3.47;;;21.40;99.90;;;;;;5060430;28;20519;-76
2022/06/22 01:06:44;;;;;;;4.57;3.42;;;21.30;99.80;;;;;;5045454;28;20052;-76
2022/06/22 01:09:24;;;;;;;5.72;3.22;;;21.20;99.80;;;;;;5062030;28;20261;-76
2022/06/22 01:15:02;;;;;;;6.47;2.83;;;21.00;99.90;;;;;;5022004;28;20063;-76
2022/06/22 01:17:35;;;;;;;6.70;3.55;;;21.10;99.90;;;;;;5064368;28;20083;-76
2022/06/22 01:20:23;;;;;;;6.68;3.25;;;21.10;99.90;;;;;;5062213;28;20826;-76
2022/06/22 01:23:26;;;;;;;4.05;2.78;;;21.10;99.90;;;;;;5061393;28;20115;-77
2022/06/22 01:26:15;;;;;;;5.20;2.70;;;21.10;99.90;;;;;;5063048;28;20036;-76
2022/06/22 01:28:41;;;;;;;5.43;3.42;;;21.20;99.90;;;;;;5063445;28;20069;-77
2022/06/22 01:31:13;;;;;;;7.35;3.88;;;21.20;99.90;;;;;;5058854;28;20044;-77
2022/06/22 01:33:47;;;;;;;3.90;2.88;;;21.10;99.90;;;;;;5061979;28;20123;-77
2022/06/22 01:36:29;;;;;;;6.78;4.15;;;21.10;99.90;;;;;;5077032;28;20048;-77
2022/06/22 01:38:55;;;;;;;6.30;3.70;;;21.10;99.90;;;;;;5077502;28;20049;-77
2022/06/22 01:41:27;;;;;;;7.07;3.38;;;21.00;99.90;;;;;;5064637;28;20071;-76
2022/06/22 01:44:16;;;;;;;4.53;3.30;;;21.00;99.90;;;;;;5062654;28;20049;-77
2022/06/22 01:47:09;;;;;;;5.88;3.33;;;20.90;99.90;;;;;;5040740;28;20633;-77
2022/06/22 01:50:00;;;;;;;7.47;3.05;;;20.80;99.90;;;;;;5062168;28;20049;-77
2022/06/22 01:52:38;;;;;;;7.28;3.28;;;20.90;99.90;;;;;;5078556;28;20098;-76
2022/06/22 01:55:12;;;;;;;5.00;3.30;;;20.90;99.90;;;;;;5064014;28;20047;-77
2022/06/22 01:57:52;;;;;;;6.32;2.58;;;20.90;99.90;;;;;;5063959;28;20115;-77
2022/06/22 02:00:20;;;;;;;8.60;3.17;;;21.00;99.90;;;;;;5061177;28;20045;-76
2022/06/22 02:02:57;;;;;;;5.38;3.60;;;21.00;99.90;;;;;;5064023;28;20161;-77
2022/06/22 02:05:47;;;;;;;5.38;3.30;;;21.00;99.90;;;;;;5063885;28;20056;-77
2022/06/22 02:08:26;;;;;;;6.38;3.03;;;21.00;99.90;;;;;;5062347;28;20946;-76
2022/06/22 02:11:04;;;;;;;6.80;3.85;;;21.00;99.90;;;;;;5059558;28;20997;-77
2022/06/22 02:13:37;;;;;;;7.57;3.03;;;21.00;99.90;;;;;;5062681;28;20037;-76
2022/06/22 02:16:30;;;;;;;6.60;4.13;;;20.90;99.90;;;;;;5061976;28;20044;-76
2022/06/22 02:18:58;;;;;;;4.00;2.72;;;21.00;99.90;;;;;;5059216;28;20072;-76
2022/06/22 02:21:42;;;;;;;5.10;3.22;;;21.00;99.90;;;;;;5059340;28;20068;-77
2022/06/22 02:24:13;;;;;;;5.82;3.38;;;21.10;99.90;;;;;;5063440;28;20096;-76
2022/06/22 02:27:03;;;;;;;7.13;2.90;;;21.00;99.90;;;;;;5064917;28;20071;-77
2022/06/22 02:29:37;;;;;;;5.70;3.08;;;21.00;99.90;;;;;;5079389;28;20087;-77
2022/06/22 02:32:07;;;;;;;7.03;4.03;;;20.90;99.90;;;;;;5062431;28;20043;-77
2022/06/22 02:34:34;;;;;;;4.72;2.83;;;21.00;99.90;;;;;;5064449;28;20041;-77
2022/06/22 02:37:03;;;;;;;6.95;4.13;;;20.90;99.90;;;;;;5061492;28;20052;-76
2022/06/22 02:39:33;;;;;;;7.38;3.80;;;20.90;99.90;;;;;;5064654;28;20523;-77
2022/06/22 02:44:47;;;;;;;5.57;3.42;;;20.80;99.90;;;;;;5065087;28;20045;-77
2022/06/22 02:47:45;;;;;;;7.93;3.70;;;20.80;99.90;;;;;;5063159;28;20114;-77
2022/06/22 02:50:38;;;;;;;5.45;2.95;;;20.80;99.90;;;;;;5062878;28;20041;-77
2022/06/22 02:53:19;;;;;;;5.57;2.88;;;20.90;99.90;;;;;;5064487;28;20590;-77
2022/06/22 02:55:45;;;;;;;5.57;3.15;;;20.90;99.90;;;;;;5063566;28;20049;-77
2022/06/22 02:58:31;;;;;;;3.83;3.25;;;20.90;99.90;;;;;;5065587;28;20083;-77
2022/06/22 03:01:07;;;;;;;4.53;2.90;;;20.90;99.90;;;;;;5077419;27;20103;-77
2022/06/22 03:03:35;;;;;;;5.18;3.30;;;20.90;99.90;;;;;;5062928;28;20044;-77
2022/06/22 03:06:01;;;;;;;7.03;3.17;;;20.90;99.90;;;;;;5064982;28;20045;-76
2022/06/22 03:08:28;;;;;;;5.93;3.55;;;20.90;99.90;;;;;;5060792;28;20041;-77
2022/06/22 03:10:57;;;;;;;6.00;3.25;;;21.00;99.90;;;;;;5063681;28;20124;-76
2022/06/22 03:13:39;;;;;;;5.88;2.90;;;20.90;99.90;;;;;;5079277;28;20068;-77
2022/06/22 03:16:07;;;;;;;10.95;3.65;;;20.90;99.90;;;;;;5061636;28;20049;-77
2022/06/22 03:18:38;;;;;;;9.23;3.40;;;20.90;99.90;;;;;;5063702;28;20047;-77
2022/06/22 03:21:07;;;;;;;4.68;3.22;;;20.80;99.90;;;;;;5063216;28;20045;-76
2022/06/22 03:23:45;;;;;;;4.95;4.10;;;20.80;99.90;;;;;;5077217;28;20060;-76
2022/06/22 03:26:45;;;;;;;6.47;3.83;;;20.80;99.90;;;;;;5062228;28;20149;-77
2022/06/22 03:29:19;;;;;;;7.47;3.72;;;20.80;99.90;;;;;;5048050;28;20056;-76
2022/06/22 03:31:52;;;;;;;9.27;3.65;;;20.70;99.90;;;;;;5062176;28;21505;-77
2022/06/22 03:34:22;;;;;;;5.20;4.07;;;20.70;99.90;;;;;;5061520;28;20063;-77
2022/06/22 03:36:57;;;;;;;6.03;3.67;;;20.50;99.90;;;;;;5063075;28;20037;-77
2022/06/22 03:39:28;;;;;;;8.32;3.88;;;20.40;99.90;;;;;;5064238;28;20051;-77
2022/06/22 03:42:03;;;;;;;7.63;3.30;;;20.50;99.90;;;;;;5063271;28;20048;-77
2022/06/22 03:44:39;;;;;;;8.63;3.83;;;20.40;99.90;;;;;;5061522;28;20793;-77
2022/06/22 03:47:05;;;;;;;12.93;4.88;;;20.40;99.90;;;;;;5062963;28;20404;-76
2022/06/22 03:49:31;;;;;;;7.63;4.00;;;20.40;99.90;;;;;;5063062;28;20056;-76
2022/06/22 03:52:29;;;;;;;6.68;3.72;;;20.30;99.90;;;;;;5059944;28;20040;-76
2022/06/22 03:55:20;;;;;;;5.53;4.20;;;20.40;99.90;;;;;;5060046;28;20063;-77
2022/06/22 03:57:51;;;;;;;5.38;4.47;;;20.30;99.90;;;;;;5063036;28;20903;-76
2022/06/22 04:00:18;;;;;;;26.52;5.57;;;20.30;99.90;;;;;;5061459;28;20051;-76
2022/06/22 04:02:44;;;;;;;9.75;3.88;;;20.30;99.90;;;;;;5061655;28;20416;-77
2022/06/22 04:05:20;;;;;;;7.03;3.78;;;20.30;99.90;;;;;;5061621;28;20086;-77
2022/06/22 04:07:47;;;;;;;7.32;3.90;;;20.30;99.90;;;;;;5064358;28;20908;-76
2022/06/22 04:10:44;;;;;;;8.25;3.85;;;20.20;99.90;;;;;;5062917;28;20041;-77
2022/06/22 04:13:18;;;;;;;5.50;3.33;;;20.20;99.90;;;;;;5060866;28;20041;-77
2022/06/22 04:15:59;;;;;;;12.45;5.97;;;20.10;99.90;;;;;;5060814;28;20043;-77
2022/06/22 04:18:34;;;;;;;6.20;3.72;;;20.10;99.90;;;;;;5063092;28;20673;-77
2022/06/22 04:21:06;;;;;;;5.43;3.78;;;20.10;99.90;;;;;;5062486;28;20601;-76
2022/06/22 04:23:38;;;;;;;7.20;3.90;;;20.10;99.90;;;;;;5061693;28;20646;-76
2022/06/22 04:26:20;;;;;;;9.23;4.10;;;20.00;99.90;;;;;;5061435;28;20479;-76
2022/06/22 04:28:51;;;;;;;6.55;3.67;;;20.00;99.90;;;;;;5063933;28;20033;-77
2022/06/22 04:31:26;;;;;;;6.50;3.70;;;20.00;99.90;;;;;;5061918;28;20048;-76
2022/06/22 04:34:05;;;;;;;8.05;4.47;;;20.00;99.90;;;;;;5060720;28;20052;-76
2022/06/22 04:36:50;;;;;;;8.20;3.50;;;19.90;99.90;;;;;;5060845;28;20146;-77
2022/06/22 04:39:25;;;;;;;6.05;3.63;;;19.90;99.90;;;;;;5063722;28;20501;-77
2022/06/22 04:41:52;;;;;;;6.20;3.72;;;19.90;99.90;;;;;;5059588;28;20927;-76
2022/06/22 04:44:22;;;;;;;13.18;5.40;;;19.90;99.90;;;;;;5061598;28;20060;-76
2022/06/22 04:46:56;;;;;;;5.10;3.58;;;19.80;99.90;;;;;;5060009;28;20033;-76
2022/06/22 04:49:35;;;;;;;6.88;3.40;;;19.80;99.90;;;;;;5045982;28;20119;-76
2022/06/22 04:52:15;;;;;;;6.95;3.42;;;19.80;99.90;;;;;;5063317;28;20040;-76
2022/06/22 04:54:43;;;;;;;6.75;4.25;;;19.70;99.90;;;;;;5060816;28;20055;-76
2022/06/22 04:57:23;;;;;;;7.20;4.00;;;19.70;99.90;;;;;;5061956;28;20040;-76
2022/06/22 04:59:49;;;;;;;6.65;5.05;;;19.60;99.90;;;;;;5078257;28;20521;-76
2022/06/22 05:02:20;;;;;;;8.20;3.83;;;19.60;99.90;;;;;;5058753;28;20084;-76
2022/06/22 05:04:51;;;;;;;8.77;3.58;;;19.50;99.90;;;;;;5046128;28;20036;-76
2022/06/22 05:07:19;;;;;;;5.95;3.45;;;19.50;99.90;;;;;;5061230;28;20045;-76
2022/06/22 05:09:54;;;;;;;7.72;3.40;;;19.50;99.90;;;;;;5063827;28;20115;-76
2022/06/22 05:12:25;;;;;;;6.90;3.95;;;19.50;99.90;;;;;;5062672;28;20048;-76
2022/06/22 05:14:55;;;;;;;6.20;3.55;;;19.40;99.90;;;;;;5062245;28;20418;-76
2022/06/22 05:17:35;;;;;;;4.82;3.45;;;19.40;99.90;;;;;;5061918;28;20045;-76
2022/06/22 05:20:06;;;;;;;9.90;3.65;;;19.40;99.90;;;;;;5063255;28;21194;-76
2022/06/22 05:22:32;;;;;;;9.13;3.70;;;19.40;99.90;;;;;;5061800;28;20052;-76
2022/06/22 05:25:03;;;;;;;4.97;3.00;;;19.40;99.90;;;;;;5059960;28;20122;-76
2022/06/22 05:27:34;;;;;;;5.75;3.10;;;19.40;99.90;;;;;;5045877;28;20554;-76
2022/06/22 05:30:08;;;;;;;5.05;3.95;;;19.40;99.90;;;;;;5063284;28;20152;-76
2022/06/22 05:32:40;;;;;;;6.43;4.38;;;19.40;99.90;;;;;;5076763;28;20044;-76
2022/06/22 05:35:21;;;;;;;7.35;3.90;;;19.40;99.90;;;;;;5061248;28;20538;-76
2022/06/22 05:37:53;;;;;;;5.40;3.38;;;19.40;99.90;;;;;;5062534;28;20052;-76
2022/06/22 05:40:21;;;;;;;;;;;19.50;99.90;;;;;;5063128;28;20037;-76
2022/06/22 05:42:47;;;;;;;12.13;4.65;;;19.50;99.90;;;;;;5061503;28;20394;-76
2022/06/22 05:45:20;;;;;;;7.43;4.53;;;19.50;99.90;;;;;;5060286;28;20075;-76
2022/06/22 05:47:46;;;;;;;6.78;3.70;;;19.50;99.90;;;;;;5062369;28;20323;-76
2022/06/22 05:50:24;;;;;;;5.85;3.05;;;19.60;99.90;;;;;;5061145;28;20623;-76
2022/06/22 05:53:08;;;;;;;8.05;3.53;;;19.70;99.90;;;;;;5061140;28;20045;-76
2022/06/22 05:56:01;;;;;;;8.05;3.90;;;19.80;99.90;;;;;;5060009;28;20045;-76
2022/06/22 05:58:44;;;;;;;5.95;3.60;;;19.90;99.90;;;;;;5062902;28;20072;-76
2022/06/22 06:01:42;;;;;;;7.72;3.45;;;19.90;99.90;;;;;;5070243;28;20071;-77
2022/06/22 06:04:42;;;;;;;7.35;3.78;;;20.00;99.90;;;;;;5067735;27;20037;-76
2022/06/22 06:07:33;;;;;;;4.40;3.22;;;20.10;99.90;;;;;;5049523;28;20219;-76
2022/06/22 06:10:01;;;;;;;5.57;3.83;;;20.30;99.90;;;;;;5067687;28;20047;-76
2022/06/22 06:12:33;;;;;;;6.28;3.40;;;20.50;99.90;;;;;;5064917;28;20036;-76
2022/06/22 06:15:02;;;;;;;7.43;5.05;;;20.60;99.90;;;;;;5068195;28;20169;-76
2022/06/22 06:17:34;;;;;;;5.68;3.40;;;20.70;99.90;;;;;;5067184;28;20061;-76
2022/06/22 06:20:01;;;;;;;4.80;3.13;;;20.80;99.90;;;;;;5067138;28;20041;-77
2022/06/22 06:22:30;;;;;;;5.82;3.35;;;20.90;99.90;;;;;;5067332;28;20079;-76
2022/06/22 06:27:55;;;;;;;9.35;5.30;;;21.30;99.90;;;;;;5067277;28;20118;-76
2022/06/22 06:30:30;;;;;;;8.65;4.07;;;21.10;99.90;;;;;;5066539;28;20043;-76
2022/06/22 06:33:17;;;;;;;8.35;4.00;;;21.10;99.90;;;;;;5065476;28;20584;-77
2022/06/22 06:35:51;;;;;;;9.70;4.72;;;21.00;99.90;;;;;;5066446;28;20076;-76
2022/06/22 06:38:34;;;;;;;7.18;3.60;;;21.00;99.90;;;;;;5067022;28;20102;-77
2022/06/22 06:41:22;;;;;;;6.30;3.92;;;21.00;99.90;;;;;;5081148;28;20098;-76
2022/06/22 06:43:50;;;;;;;7.40;4.07;;;21.00;99.90;;;;;;5065269;28;20593;-76
2022/06/22 06:46:38;;;;;;;7.55;3.90;;;20.90;99.90;;;;;;5064274;28;20087;-76
2022/06/22 06:49:10;;;;;;;5.38;4.03;;;20.90;99.90;;;;;;5066962;28;20071;-76
2022/06/22 06:51:40;;;;;;;11.70;3.75;;;20.80;99.90;;;;;;5082369;27;20045;-76
2022/06/22 06:54:40;;;;;;;9.75;3.67;;;20.70;99.90;;;;;;5065336;28;20185;-76
2022/06/22 06:57:14;;;;;;;5.78;2.72;;;20.70;99.90;;;;;;5068127;28;20040;-77
2022/06/22 06:59:42;;;;;;;8.70;4.03;;;20.70;99.90;;;;;;5066274;28;20474;-76
2022/06/22 07:02:19;;;;;;;6.53;3.30;;;20.70;99.90;;;;;;5065815;28;20033;-77
2022/06/22 07:04:46;;;;;;;8.60;4.53;;;20.60;99.90;;;;;;5067158;28;20047;-76
2022/06/22 07:07:12;;;;;;;5.35;3.90;;;20.70;99.90;;;;;;5065755;28;20542;-76
2022/06/22 07:09:40;;;;;;;6.60;3.58;;;20.70;99.90;;;;;;5062111;28;20049;-76
2022/06/22 07:12:25;;;;;;;17.45;5.28;;;20.80;99.90;;;;;;5078955;28;20037;-76
2022/06/22 07:14:50;;;;;;;10.63;4.18;;;21.00;99.90;;;;;;5060759;28;20036;-76
2022/06/22 07:17:20;;;;;;;7.22;3.28;;;21.10;99.90;;;;;;5061655;28;20139;-79
2022/06/22 07:19:59;;;;;;;4.90;3.83;;;21.30;99.90;;;;;;5059749;28;20120;-80
2022/06/22 07:22:31;;;;;;;5.45;3.45;;;21.60;99.90;;;;;;5060900;28;20180;-77
2022/06/22 07:25:15;;;;;;;5.88;3.50;;;21.80;99.90;;;;;;5062844;28;20606;-77
2022/06/22 07:27:53;;;;;;;10.25;5.05;;;21.90;99.90;;;;;;5062285;28;20561;-77
2022/06/22 07:30:40;;;;;;;13.05;3.72;;;21.90;99.90;;;;;;5077379;28;20053;-77
2022/06/22 07:33:14;;;;;;;7.57;3.75;;;22.10;99.90;;;;;;5060291;28;20050;-77
2022/06/22 07:35:49;;;;;;;11.88;4.20;;;22.10;99.90;;;;;;5063407;28;20267;-77
2022/06/22 07:38:36;;;;;;;10.70;3.67;;;22.10;99.90;;;;;;5061250;28;20510;-77
2022/06/22 07:41:22;;;;;;;9.63;4.45;;;22.00;99.90;;;;;;5063918;28;20090;-77
2022/06/22 07:44:01;;;;;;;7.40;3.25;;;22.00;99.90;;;;;;5061561;28;20051;-77
2022/06/22 07:46:32;;;;;;;4.15;3.40;;;22.00;99.90;;;;;;5062325;28;20306;-77
2022/06/22 07:49:20;;;;;;;6.75;4.30;;;22.00;99.90;;;;;;5062713;27;20045;-77
2022/06/22 07:51:59;;;;;;;7.47;3.85;;;22.10;99.90;;;;;;5063611;28;20128;-77
2022/06/22 07:54:39;;;;;;;5.78;3.75;;;22.10;99.90;;;;;;5063531;28;20114;-77
2022/06/22 07:57:29;;;;;;;5.82;3.95;;;22.20;99.90;;;;;;5061288;28;20045;-78
2022/06/22 08:00:04;;;;;;;8.77;3.40;;;22.30;99.90;;;;;;5063879;28;20052;-77
2022/06/22 08:02:58;;;;;;;10.88;4.25;;;22.40;99.90;;;;;;5060574;28;20053;-77
2022/06/22 08:05:31;;;;;;;5.45;3.60;;;22.60;99.90;;;;;;5062514;28;20518;-79
2022/06/22 08:08:06;;;;;;;4.35;3.75;;;22.50;99.90;;;;;;5062549;28;20051;-77
2022/06/22 08:10:43;;;;;;;6.50;3.53;;;22.70;99.90;;;;;;5061529;28;20040;-78
2022/06/22 08:13:18;;;;;;;6.53;3.10;;;22.80;99.90;;;;;;5063433;28;20041;-77
2022/06/22 08:15:53;;;;;;;5.85;3.90;;;23.00;99.90;;;;;;5060320;28;20481;-78
2022/06/22 08:18:19;;;;;;;9.35;3.40;;;23.00;99.90;;;;;;5063804;28;20191;-77
2022/06/22 08:20:49;;;;;;;8.35;3.63;;;23.10;99.90;;;;;;5063775;28;20180;-77
2022/06/22 08:23:23;;;;;;;9.40;4.00;;;23.10;99.90;;;;;;5059848;28;20041;-77
2022/06/22 08:25:50;;;;;;;6.70;3.25;;;23.20;99.90;;;;;;5061067;28;20522;-77
2022/06/22 08:28:20;;;;;;;6.85;4.07;;;23.20;99.90;;;;;;5061842;28;20033;-77
2022/06/22 08:30:49;;;;;;;9.85;3.85;;;23.10;99.90;;;;;;5062591;28;20069;-77
2022/06/22 08:33:27;;;;;;;9.10;3.65;;;23.10;99.90;;;;;;5061180;28;20042;-78
2022/06/22 08:35:57;;;;;;;10.38;4.05;;;23.10;99.90;;;;;;5080735;27;20462;-77
2022/06/22 08:38:47;;;;;;;9.93;4.30;;;23.10;99.90;;;;;;5063437;28;20722;-77
2022/06/22 08:41:35;;;;;;;8.70;4.25;;;23.20;99.90;;;;;;5061768;28;20159;-77
2022/06/22 08:44:16;;;;;;;5.35;3.42;;;23.20;99.90;;;;;;5062243;28;20593;-78
2022/06/22 08:46:57;;;;;;;6.88;3.63;;;23.30;99.90;;;;;;5060016;28;20119;-78
2022/06/22 08:49:57;;;;;;;4.80;3.77;;;23.40;99.90;;;;;;5061318;28;20091;-78
2022/06/22 08:52:47;;;;;;;5.30;4.30;;;23.50;99.90;;;;;;5061531;28;20148;-78
2022/06/22 08:55:38;;;;;;;6.97;3.38;;;23.50;99.90;;;;;;5062152;28;20048;-80
2022/06/22 08:58:12;;;;;;;7.40;4.03;;;23.50;99.90;;;;;;5072634;28;20045;-78
2022/06/22 09:00:56;;;;;;;10.98;4.40;;;23.50;99.90;;;;;;5062414;28;20175;-79
2022/06/22 09:03:25;;;;;;;6.80;4.05;;;23.50;99.90;;;;;;5064702;28;20569;-77
2022/06/22 09:06:02;;;;;;;8.07;5.10;;;23.50;99.90;;;;;;5062097;28;20530;-77
2022/06/22 09:08:46;;;;;;;12.68;5.65;;;23.60;99.90;;;;;;5060456;28;20037;-77
2022/06/22 09:11:49;;;;;;;9.60;4.53;;;23.70;99.90;;;;;;5077225;28;20116;-78
2022/06/22 09:14:15;;;;;;;6.55;3.90;;;23.60;99.90;;;;;;5060480;28;20074;-78
2022/06/22 09:17:16;;;;;;;7.45;3.70;;;23.50;99.90;;;;;;5060766;28;20710;-77
2022/06/22 09:19:59;;;;;;;14.77;4.95;;;23.50;99.90;;;;;;5072402;28;20045;-77
2022/06/22 09:22:50;;;;;;;8.07;4.70;;;23.50;99.90;;;;;;5058846;28;20052;-77
2022/06/22 09:25:30;;;;;;;7.68;3.80;;;23.40;99.90;;;;;;5063248;28;20743;-78
2022/06/22 09:28:11;;;;;;;5.70;3.45;;;23.50;99.90;;;;;;5077658;28;20059;-78
2022/06/22 09:30:46;;;;;;;13.02;3.88;;;23.60;99.90;;;;;;5058160;28;20132;-77
2022/06/22 09:33:47;;;;;;;10.15;4.03;;;23.70;99.90;;;;;;5061192;28;20045;-78
2022/06/22 09:36:28;;;;;;;6.25;3.58;;;23.80;99.90;;;;;;5059100;28;20045;-77
2022/06/22 09:39:12;;;;;;;7.05;3.97;;;23.80;99.90;;;;;;5062663;28;20049;-77
2022/06/22 09:41:57;;;;;;;11.05;4.85;;;23.70;99.90;;;;;;5063059;28;20087;-77
2022/06/22 09:44:41;;;;;;;9.40;3.63;;;23.70;99.90;;;;;;5059866;28;20429;-77
2022/06/22 09:47:18;;;;;;;7.00;3.53;;;23.60;99.90;;;;;;5058288;28;20036;-77
2022/06/22 09:50:19;;;;;;;5.32;3.42;;;23.70;99.90;;;;;;5061187;28;20635;-78
2022/06/22 09:53:29;;;;;;;6.00;3.63;;;23.80;99.90;;;;;;5076360;28;20044;-78
2022/06/22 09:59:31;;;;;;;5.80;2.90;;;23.80;99.90;;;;;;5060194;28;20049;-85
2022/06/22 10:02:22;;;;;;;4.47;3.20;;;23.70;99.90;;;;;;5062346;28;20041;-84
2022/06/22 10:05:27;;;;;;;5.85;2.90;;;23.70;99.90;;;;;;5061905;28;20557;-82
2022/06/22 10:08:25;;;;;;;5.20;2.95;;;23.70;99.90;;;;;;5061355;28;21299;-81
2022/06/22 10:11:16;;;;;;;4.10;2.95;;;23.80;99.90;;;;;;5058877;28;20912;-81
2022/06/22 10:14:00;;;;;;;5.00;3.17;;;23.90;99.90;;;;;;5060575;28;20044;-82
2022/06/22 10:16:35;;;;;;;6.90;3.42;;;24.10;99.90;;;;;;5061701;28;20518;-81
2022/06/22 10:19:00;;;;;;;3.40;1.95;;;24.20;99.90;;;;;;5060738;28;20707;-81
2022/06/22 10:21:57;;;;;;;5.13;2.80;;;24.20;99.90;;;;;;5059986;28;20238;-81
2022/06/22 10:24:32;;;;;;;4.45;3.35;;;24.20;99.90;;;;;;5072756;28;20175;-82
2022/06/22 10:27:25;;;;;;;7.15;3.00;;;24.20;99.90;;;;;;5060890;28;20037;-81
2022/06/22 10:30:28;;;;;;;7.55;3.85;;;24.20;99.90;;;;;;5058380;28;20660;-80
2022/06/22 10:33:18;;;;;;;7.47;3.05;;;24.10;99.90;;;;;;5060360;28;20044;-85
2022/06/22 10:35:59;;;;;;;5.63;2.90;;;24.20;99.90;;;;;;5063125;28;20666;-85
2022/06/22 10:38:37;;;;;;;6.15;2.90;;;24.20;99.90;;;;;;5058661;28;20040;-89
2022/06/22 10:47:41;;;;;;;7.07;2.53;;;24.40;99.90;;;;;;5061699;28;20169;-85
2022/06/22 10:50:18;;;;;;;4.38;2.97;;;24.50;99.90;;;;;;5062001;28;20528;-85
2022/06/22 10:52:50;;;;;;;3.67;2.58;;;24.60;99.90;;;;;;5048454;28;20041;-85
2022/06/22 10:55:22;;;;;;;4.35;2.83;;;24.60;99.90;;;;;;5062889;28;20049;-85
2022/06/22 10:58:00;;;;;;;4.03;2.60;;;24.70;99.90;;;;;;5079093;28;20049;-85
2022/06/22 11:00:55;;;;;;;4.43;3.28;;;24.80;99.90;;;;;;5063387;28;20136;-87
2022/06/22 11:03:46;;;;;;;6.03;3.05;;;24.90;99.90;;;;;;5015237;28;20565;-85
2022/06/22 11:06:19;;;;;;;6.10;3.17;;;25.00;99.90;;;;;;5077908;28;20043;-84
2022/06/22 11:08:51;;;;;;;7.60;3.33;;;25.20;99.90;;;;;;5060345;28;20280;-86
2022/06/22 11:11:35;;;;;;;5.32;3.30;;;25.30;99.90;;;;;;5064647;28;20124;-85
2022/06/22 11:14:28;;;;;;;7.10;3.38;;;25.50;99.90;;;;;;5063054;28;20116;-86
2022/06/22 11:17:11;;;;;;;7.50;3.55;;;25.60;99.90;;;;;;5063165;28;20053;-85
2022/06/22 11:19:44;;;;;;;7.55;3.72;;;25.70;99.90;;;;;;5047156;28;20083;-87
2022/06/22 11:22:32;;;;;;;6.13;3.05;;;25.70;99.90;;;;;;5064863;28;20507;-86
2022/06/22 11:30:48;;;;;;;5.53;2.80;;;25.70;99.90;;;;;;5063220;28;20533;-85
2022/06/22 11:31:44;;;;;;;7.38;3.22;;;25.70;99.90;;;;;;5021575;28;20498;-85
2022/06/22 11:34:31;;;;;;;6.03;3.65;;;25.80;99.90;;;;;;5064430;28;20114;-84
2022/06/22 11:37:11;;;;;;;7.30;3.53;;;25.70;99.90;;;;;;5060428;28;20044;-84
2022/06/22 11:39:56;;;;;;;4.38;3.08;;;25.70;99.90;;;;;;5063239;28;20044;-84
2022/06/22 11:42:44;;;;;;;5.68;3.65;;;25.70;99.90;;;;;;5076445;28;20107;-84
2022/06/22 11:45:54;;;;;;;4.53;3.35;;;25.70;99.90;;;;;;5063628;28;20052;-84
2022/06/22 11:48:43;;;;;;;4.32;3.35;;;25.90;99.90;;;;;;5075684;27;20057;-84
2022/06/22 11:51:09;;;;;;;7.38;3.85;;;25.90;99.90;;;;;;5060117;28;20527;-84
2022/06/22 11:54:22;;;;;;;6.30;3.65;;;25.90;99.90;;;;;;5062054;28;20057;-84
2022/06/22 11:57:21;;;;;;;6.60;3.72;;;25.90;99.90;;;;;;4983468;28;20051;-84
2022/06/22 11:59:52;;;;;;;6.85;3.20;;;26.00;99.90;;;;;;5066833;28;20428;-84
2022/06/22 12:02:39;;;;;;;5.63;3.65;;;26.10;99.90;;;;;;5066156;28;20045;-84
2022/06/22 12:05:14;;;;;;;5.47;3.72;;;26.30;99.90;;;;;;5066052;28;20525;-84
2022/06/22 12:08:01;;;;;;;4.13;3.13;;;26.50;99.90;;;;;;5065816;28;20127;-84
2022/06/22 12:10:50;;;;;;;6.30;3.47;;;26.50;99.90;;;;;;5066286;28;20036;-84
2022/06/22 12:13:28;;;;;;;9.05;3.17;;;26.50;99.90;;;;;;5064117;28;20264;-84
2022/06/22 12:16:24;;;;;;;6.25;3.63;;;26.40;99.90;;;;;;5064122;28;20037;-84
2022/06/22 12:19:13;;;;;;;7.75;3.33;;;26.40;99.90;;;;;;5065329;28;20047;-84
2022/06/22 12:21:48;;;;;;;6.95;3.60;;;26.40;99.90;;;;;;5066229;28;20147;-84
2022/06/22 12:24:52;;;;;;;4.75;3.75;;;26.40;99.90;;;;;;5063911;28;20404;-84
2022/06/22 12:27:28;;;;;;;8.35;3.58;;;26.50;99.90;;;;;;5063618;28;20063;-83
2022/06/22 12:30:22;;;;;;;7.40;3.22;;;26.50;99.90;;;;;;5064958;28;20039;-84
2022/06/22 12:32:57;;;;;;;5.82;3.67;;;26.60;99.90;;;;;;5078835;28;20091;-84
2022/06/22 12:35:57;;;;;;;5.68;3.47;;;26.60;99.90;;;;;;5067063;28;20562;-84
2022/06/22 12:38:44;;;;;;;5.88;3.40;;;26.70;99.90;;;;;;5030348;28;20523;-84
2022/06/22 12:41:19;;;;;;;5.82;3.40;;;26.90;99.90;;;;;;5066709;28;20044;-84
2022/06/22 12:43:48;;;;;;;5.10;3.42;;;27.00;99.90;;;;;;5065491;28;20554;-84
2022/06/22 12:46:22;;;;;;;5.15;2.65;;;27.00;99.90;;;;;;5066609;28;20575;-84
2022/06/22 12:49:16;;;;;;;4.18;2.72;;;26.80;99.90;;;;;;5066609;28;20128;-84
2022/06/22 12:51:46;;;;;;;5.55;3.15;;;26.70;99.80;;;;;;5062711;28;20041;-84
2022/06/22 12:54:28;;;;;;;5.40;3.08;;;26.70;99.70;;;;;;5063284;28;20032;-84
2022/06/22 12:57:03;;;;;;;8.82;4.07;;;26.60;99.50;;;;;;5063564;28;20048;-84
2022/06/22 12:59:47;;;;;;;7.60;3.85;;;26.70;99.50;;;;;;5080531;28;20136;-83
2022/06/22 13:02:17;;;;;;;4.65;3.00;;;26.70;99.30;;;;;;5062650;28;20068;-83
2022/06/22 13:04:45;;;;;;;5.45;2.78;;;26.80;99.00;;;;;;5064090;28;20087;-84
2022/06/22 13:07:14;;;;;;;7.40;4.38;;;26.90;98.90;;;;;;5064550;28;20045;-84
2022/06/22 13:09:41;;;;;;;6.60;3.67;;;27.00;98.50;;;;;;5064202;28;20087;-84
2022/06/22 13:12:19;;;;;;;5.78;3.72;;;27.10;98.50;;;;;;5065132;28;20036;-84
2022/06/22 13:15:02;;;;;;;6.55;3.72;;;27.10;98.20;;;;;;5063433;28;20158;-83
2022/06/22 13:17:50;;;;;;;10.13;4.45;;;27.10;98.20;;;;;;5047794;28;20789;-83
2022/06/22 13:20:22;;;;;;;9.00;3.95;;;27.00;98.30;;;;;;5049657;28;20053;-84
2022/06/22 13:22:55;;;;;;;;;;;26.90;98.30;;;;;;5063605;28;20064;-84
2022/06/22 13:25:45;;;;;;;8.45;4.82;;;26.80;98.30;;;;;;5063978;28;20583;-84
2022/06/22 13:28:29;;;;;;;4.63;4.00;;;26.70;98.50;;;;;;5064982;28;20051;-84
2022/06/22 13:31:19;;;;;;;5.60;3.80;;;26.70;98.60;;;;;;5065491;28;20041;-83
2022/06/22 13:33:52;;;;;;;8.25;4.95;;;26.70;98.70;;;;;;5045509;28;20060;-83
2022/06/22 13:36:24;;;;;;;7.97;4.13;;;26.70;98.70;;;;;;5064228;28;20788;-83
2022/06/22 13:38:59;;;;;;;6.95;4.35;;;26.70;98.90;;;;;;5064737;28;20040;-83
2022/06/22 13:41:56;;;;;;;8.30;4.40;;;26.90;98.90;;;;;;5062983;28;20144;-83
2022/06/22 13:44:44;;;;;;;8.23;5.30;;;27.20;98.80;;;;;;5056178;28;20075;-83
2022/06/22 13:47:30;;;;;;;6.80;4.43;;;27.40;98.60;;;;;;5079089;28;20049;-83
2022/06/22 13:50:20;;;;;;;9.65;5.55;;;27.50;98.20;;;;;;5063481;28;20052;-83
2022/06/22 13:52:47;;;;;;;10.48;5.50;;;27.40;98.00;;;;;;5064066;28;20557;-83
2022/06/22 13:55:34;;;;;;;7.20;5.07;;;27.30;97.90;;;;;;5063916;28;20256;-83
2022/06/22 13:58:07;;;;;;;12.52;5.82;;;27.40;97.90;;;;;;5064399;28;20151;-84
2022/06/22 14:00:49;;;;;;;13.68;6.43;;;27.30;97.80;;;;;;5062751;28;20051;-83
2022/06/22 14:03:43;;;;;;;9.40;5.53;;;27.30;97.90;;;;;;5064590;28;20095;-84
2022/06/22 14:06:17;;;;;;;12.70;6.43;;;27.40;97.90;;;;;;5063766;28;20048;-83
2022/06/22 14:08:52;;;;;;;9.27;5.00;;;27.60;97.80;;;;;;5047188;28;20776;-83
2022/06/22 14:11:36;;;;;;;9.95;5.63;;;27.60;97.60;;;;;;5063398;28;20028;-83